Time;durP1;ratioP1;P1;durP2;ratioP2;P2;SDS_P1;SDS_P2;PMS_P1;PMS_P2;Temp;Humidity;BMP_temperature;BMP_pressure;BME280_temperature;BME280_humidity;BME280_pressure;Samples;Min_cycle;Max_cycle;Signal;HPM_P1;HPM_P2
2024/02/19 16:49:09;;;;;;;;;;;-1.60;79.20;;;;;;5100985;27;19914;-93
2024/02/19 16:51:40;;;;;;;;;;;-1.70;80.30;;;;;;5056555;28;20445;-91
2024/02/19 16:54:08;;;;;;;;;;;-1.70;81.60;;;;;;5046077;28;19919;-91
2024/02/19 16:56:33;;;;;;;;;;;-1.60;82.90;;;;;;5061141;28;19913;-92
2024/02/19 16:58:59;;;;;;;;;;;-1.60;83.90;;;;;;5048460;28;20236;-93
2024/02/19 17:01:25;;;;;;;;;;;-1.40;84.60;;;;;;5041042;28;19924;-93
2024/02/19 17:03:51;;;;;;;;;;;-1.40;85.40;;;;;;5047502;28;19913;-92
2024/02/19 17:06:16;;;;;;;;;;;-1.30;86.20;;;;;;5045802;28;20004;-91
2024/02/19 17:08:44;;;;;;;;;;;-1.20;87.00;;;;;;5054360;28;20284;-92
2024/02/19 17:11:09;;;;;;;;;;;-1.20;87.50;;;;;;5050862;28;19913;-91
2024/02/19 17:13:36;;;;;;;;;;;-1.10;88.20;;;;;;5054329;28;19913;-93
2024/02/19 17:16:03;;;;;;;;;;;-1.00;88.70;;;;;;5040525;28;19918;-94
2024/02/19 17:18:32;;;;;;;;;;;-1.00;89.10;;;;;;5073356;28;19916;-96
2024/02/19 17:20:57;;;;;;;;;;;-1.00;89.50;;;;;;5057340;28;19924;-94
2024/02/19 17:23:23;;;;;;;;;;;-0.90;90.00;;;;;;5047225;28;19913;-93
2024/02/19 17:25:49;;;;;;;;;;;-0.90;90.30;;;;;;5048586;28;20332;-93
2024/02/19 17:28:15;;;;;;;;;;;-0.90;90.60;;;;;;5061079;28;19971;-93
2024/02/19 17:30:43;;;;;;;;;;;-0.90;90.90;;;;;;5053548;28;19917;-96
2024/02/19 17:33:08;;;;;;;;;;;-0.90;91.00;;;;;;5053004;28;19913;-95
2024/02/19 17:35:33;;;;;;;;;;;-0.90;91.20;;;;;;5051967;28;19920;-96
2024/02/19 17:37:59;;;;;;;;;;;-0.90;91.50;;;;;;5082827;28;20391;-96
2024/02/19 17:40:25;;;;;;;;;;;-0.80;91.70;;;;;;5056796;28;19996;-94
2024/02/19 17:42:51;;;;;;;;;;;-0.90;92.00;;;;;;5050881;28;19913;-95
2024/02/19 17:45:16;;;;;;;;;;;-0.90;92.10;;;;;;5050336;28;19917;-94
2024/02/19 17:47:42;;;;;;;;;;;-0.90;92.40;;;;;;5049701;28;19932;-93
2024/02/19 17:50:09;;;;;;;;;;;-0.90;92.60;;;;;;5066840;28;19912;-95
2024/02/19 17:52:34;;;;;;;;;;;-0.90;92.80;;;;;;5053659;28;19917;-94
2024/02/19 17:55:00;;;;;;;;;;;-0.90;93.00;;;;;;5049682;28;19924;-94
2024/02/19 17:57:26;;;;;;;;;;;-0.90;93.40;;;;;;5051781;28;20290;-95
2024/02/19 17:59:53;;;;;;;;;;;-0.90;93.50;;;;;;5039701;28;20003;-94
2024/02/19 18:02:19;;;;;;;;;;;-0.90;93.70;;;;;;5050699;28;19917;-95
2024/02/19 18:04:53;;;;;;;;;;;-0.90;93.90;;;;;;5050939;28;19935;-93
2024/02/19 18:07:18;;;;;;;;;;;-0.90;94.00;;;;;;5041941;28;20388;-94
2024/02/19 18:09:44;;;;;;;;;;;-0.80;94.20;;;;;;5056044;28;19909;-93
2024/02/19 18:12:09;;;;;;;;;;;-0.80;94.40;;;;;;5054388;28;19960;-94
2024/02/19 18:14:36;;;;;;;;;;;-0.80;94.50;;;;;;5036413;28;20379;-95
2024/02/19 18:17:01;;;;;;;;;;;-0.90;94.60;;;;;;5036387;28;20396;-93
2024/02/19 18:19:27;;;;;;;;;;;-0.80;94.80;;;;;;5050424;28;19912;-96
2024/02/19 18:21:54;;;;;;;;;;;-0.80;95.00;;;;;;5055631;28;19920;-94
2024/02/19 18:24:19;;;;;;;;;;;-0.80;95.10;;;;;;5050501;28;19909;-94
2024/02/19 18:26:45;;;;;;;;;;;-0.80;95.30;;;;;;5035460;28;19932;-93
2024/02/19 18:29:14;;;;;;;;;;;-0.90;95.40;;;;;;5045721;28;19913;-95
2024/02/19 18:31:40;;;;;;;;;;;-0.90;95.60;;;;;;5042513;28;19913;-95
2024/02/19 18:34:06;;;;;;;;;;;-0.90;95.80;;;;;;5035603;28;19917;-94
2024/02/19 18:36:31;;;;;;;;;;;-0.90;95.90;;;;;;5043435;28;19917;-94
2024/02/19 18:38:57;;;;;;;;;;;-0.80;96.10;;;;;;5035351;28;19917;-94
2024/02/19 18:41:22;;;;;;;;;;;-0.90;96.20;;;;;;5036575;28;19956;-93
2024/02/19 18:43:48;;;;;;;;;;;-0.80;96.40;;;;;;5040150;28;20317;-94
2024/02/19 18:46:16;;;;;;;;;;;-0.80;96.40;;;;;;5037516;28;20370;-95
2024/02/19 18:48:42;;;;;;;;;;;-0.80;96.60;;;;;;5035450;28;20266;-94
2024/02/19 18:51:10;;;;;;;;;;;-0.90;96.70;;;;;;5035722;28;19913;-94
2024/02/19 18:53:36;;;;;;;;;;;-0.90;96.80;;;;;;5035751;28;20278;-95
2024/02/19 18:56:02;;;;;;;;;;;-0.80;96.90;;;;;;5039450;28;20003;-95
2024/02/19 18:58:28;;;;;;;;;;;-0.80;97.10;;;;;;5038967;28;19920;-95
2024/02/19 19:00:54;;;;;;;;;;;-0.90;97.10;;;;;;5036572;28;19996;-94
2024/02/19 19:03:21;;;;;;;;;;;-0.80;97.20;;;;;;5036253;28;19917;-94
2024/02/19 19:05:47;;;;;;;;;;;-0.90;97.30;;;;;;5038240;28;19948;-93
2024/02/19 19:08:12;;;;;;;;;;;-0.90;97.40;;;;;;5037253;28;19913;-92
2024/02/19 19:10:40;;;;;;;;;;;-0.90;97.60;;;;;;5038670;28;19956;-93
2024/02/19 19:13:40;;;;;;;;;;;-0.90;97.50;;;;;;4920988;27;4224137;-95
2024/02/19 19:16:07;;;;;;;;;;;-0.90;97.90;;;;;;5057010;28;19935;-95
2024/02/19 19:18:33;;;;;;;;;;;-0.90;98.00;;;;;;5062238;28;19909;-96
2024/02/19 19:21:06;;;;;;;;;;;-0.90;98.10;;;;;;5063238;28;20365;-96
2024/02/19 19:33:52;;;;;;;;;;;-1.20;95.50;;;;;;5105922;27;2022766;-96
2024/02/19 19:36:18;;;;;;;;;;;-1.30;95.80;;;;;;5165565;27;19911;-96
2024/02/19 19:38:43;;;;;;;;;;;-1.40;96.30;;;;;;5159135;27;19911;-96
